Time;durP1;ratioP1;P1;durP2;ratioP2;P2;SDS_P1;SDS_P2;PMS_P1;PMS_P2;Temp;Humidity;BMP_temperature;BMP_pressure;BME280_temperature;BME280_humidity;BME280_pressure;Samples;Min_cycle;Max_cycle;Signal;HPM_P1;HPM_P2
2021/03/12 00:01:25;;;;;;;81.95;41.78;;;;;;;;;;5013897;28;20018;-72
2021/03/12 00:03:51;;;;;;;75.28;36.47;;;;;;;;;;4997203;28;20022;-72
2021/03/12 00:06:17;;;;;;;73.88;35.08;;;;;;;;;;4996400;28;20017;-72
2021/03/12 00:08:45;;;;;;;58.55;29.15;;;;;;;;;;5014687;28;20362;-73
2021/03/12 00:11:12;;;;;;;67.35;36.35;;;;;;;;;;5014753;28;20013;-72
2021/03/12 00:13:38;;;;;;;63.58;34.95;;;;;;;;;;4996754;28;20041;-72
2021/03/12 00:16:05;;;;;;;54.47;32.43;;;;;;;;;;5014137;28;20034;-72
2021/03/12 00:18:44;;;;;;;45.85;27.70;;;;;;;;;;4996959;28;20026;-72
2021/03/12 00:21:11;;;;;;;48.88;27.85;;;;;;;;;;5014485;28;20018;-70
2021/03/12 00:23:39;;;;;;;59.58;32.15;;;;;;;;;;5014479;28;20170;-71
2021/03/12 00:26:05;;;;;;;68.63;36.78;;;;;;;;;;4997400;28;20457;-71
2021/03/12 00:28:31;;;;;;;48.55;25.48;;;;;;;;;;4995525;28;20072;-72
2021/03/12 00:30:57;;;;;;;51.47;26.02;;;;;;;;;;4996813;28;20061;-71
2021/03/12 00:33:24;;;;;;;50.85;25.63;;;;;;;;;;5014419;28;20336;-73
2021/03/12 00:35:50;;;;;;;39.13;22.33;;;;;;;;;;4996863;28;20022;-73
2021/03/12 00:38:16;;;;;;;41.88;22.48;;;;;;;;;;5014578;28;20020;-73
2021/03/12 00:40:45;;;;;;;62.72;30.05;;;;;;;;;;5014274;28;20040;-73
2021/03/12 00:43:12;;;;;;;58.85;30.48;;;;;;;;;;4999893;28;20025;-72
2021/03/12 00:45:39;;;;;;;56.57;26.77;;;;;;;;;;5014780;28;20022;-71
2021/03/12 00:48:05;;;;;;;48.10;24.45;;;;;;;;;;4996568;28;20108;-72
2021/03/12 00:50:34;;;;;;;37.90;22.60;;;;;;;;;;5013610;28;20041;-72
2021/03/12 00:53:00;;;;;;;46.00;27.02;;;;;;;;;;5014078;28;20080;-71
2021/03/12 00:55:26;;;;;;;51.72;29.60;;;;;;;;;;5013505;28;20021;-73
2021/03/12 00:57:52;;;;;;;59.53;30.10;;;;;;;;;;5013492;28;20033;-73
2021/03/12 01:00:20;;;;;;;50.95;25.88;;;;;;;;;;4996376;28;20014;-73
2021/03/12 01:02:46;;;;;;;45.40;26.25;;;;;;;;;;5014299;28;20029;-73
2021/03/12 01:05:13;;;;;;;56.33;31.35;;;;;;;;;;5013395;28;20022;-73
2021/03/12 01:07:39;;;;;;;40.42;21.60;;;;;;;;;;5014043;28;20018;-73
2021/03/12 01:10:06;;;;;;;75.53;36.78;;;;;;;;;;4995505;28;20455;-72
2021/03/12 01:12:32;;;;;;;44.15;26.13;;;;;;;;;;4996031;28;20041;-72
2021/03/12 01:14:58;;;;;;;50.47;27.10;;;;;;;;;;5014219;28;20467;-72
2021/03/12 01:17:24;;;;;;;49.85;28.60;;;;;;;;;;5013692;28;20028;-73
2021/03/12 01:19:50;;;;;;;58.70;29.88;;;;;;;;;;5000336;28;20026;-73
2021/03/12 01:22:16;;;;;;;78.43;39.85;;;;;;;;;;5017581;28;20024;-73
2021/03/12 01:24:42;;;;;;;62.10;29.58;;;;;;;;;;4999340;28;20014;-72
2021/03/12 01:27:09;;;;;;;70.50;34.30;;;;;;;;;;5000063;28;20439;-72
2021/03/12 01:29:35;;;;;;;57.80;27.00;;;;;;;;;;4999705;28;20045;-73
2021/03/12 01:32:01;;;;;;;54.70;30.10;;;;;;;;;;4999743;28;20022;-72
2021/03/12 01:34:28;;;;;;;68.85;34.00;;;;;;;;;;4999888;28;20367;-72
2021/03/12 01:36:54;;;;;;;55.40;31.65;;;;;;;;;;4999911;28;20478;-73
2021/03/12 01:39:20;;;;;;;54.08;26.73;;;;;;;;;;5017053;28;20022;-71
2021/03/12 01:41:46;;;;;;;43.90;22.38;;;;;;;;;;5017480;28;20501;-72
2021/03/12 01:44:13;;;;;;;42.70;23.27;;;;;;;;;;5017644;28;20029;-72
2021/03/12 01:46:39;;;;;;;38.65;22.88;;;;;;;;;;4999436;28;20528;-73
2021/03/12 01:49:05;;;;;;;39.20;21.40;;;;;;;;;;4999494;28;20052;-73
2021/03/12 01:51:33;;;;;;;36.50;20.45;;;;;;;;;;5017301;28;20138;-73
2021/03/12 01:53:59;;;;;;;42.45;23.10;;;;;;;;;;5017034;28;20022;-72
2021/03/12 01:56:25;;;;;;;39.28;22.63;;;;;;;;;;5017218;28;20367;-72
2021/03/12 01:58:51;;;;;;;38.13;21.20;;;;;;;;;;5016869;28;20026;-73
2021/03/12 02:01:17;;;;;;;41.80;22.27;;;;;;;;;;5016835;28;20056;-73
2021/03/12 02:03:43;;;;;;;37.20;21.42;;;;;;;;;;5017352;28;20048;-70
2021/03/12 02:06:10;;;;;;;38.63;24.52;;;;;;;;;;4999087;28;20076;-70
2021/03/12 02:08:36;;;;;;;37.92;21.52;;;;;;;;;;5016715;28;20018;-71
2021/03/12 02:11:02;;;;;;;32.20;17.55;;;;;;;;;;4999634;28;20096;-71
2021/03/12 02:13:52;;;;;;;31.08;19.17;;;;;;;;;;5016403;28;20026;-71
2021/03/12 02:16:34;;;;;;;30.63;19.10;;;;;;;;;;4999191;28;20022;-71
2021/03/12 02:19:02;;;;;;;36.88;21.80;;;;;;;;;;5016820;28;20018;-71
2021/03/12 02:21:32;;;;;;;43.50;21.42;;;;;;;;;;4998878;28;20022;-71
2021/03/12 02:24:11;;;;;;;49.28;24.42;;;;;;;;;;4999090;28;20026;-71
2021/03/12 02:26:47;;;;;;;39.47;21.77;;;;;;;;;;5016811;28;20021;-72
2021/03/12 02:29:15;;;;;;;43.92;22.80;;;;;;;;;;4997719;28;20049;-72
2021/03/12 02:31:42;;;;;;;39.10;21.65;;;;;;;;;;5016812;28;20025;-71
2021/03/12 02:34:09;;;;;;;40.15;21.60;;;;;;;;;;5015564;28;20026;-71
2021/03/12 02:36:37;;;;;;;39.28;21.73;;;;;;;;;;4998827;28;20367;-71
2021/03/12 02:39:03;;;;;;;;;;;;;;;;;;5016797;28;20026;-71
2021/03/12 02:41:29;;;;;;;38.08;21.67;;;;;;;;;;4999140;28;20302;-71
2021/03/12 02:43:56;;;;;;;53.33;25.98;;;;;;;;;;4998595;28;20029;-71
2021/03/12 02:46:23;;;;;;;55.92;34.42;;;;;;;;;;5016304;28;20113;-71
2021/03/12 02:48:49;;;;;;;63.30;30.30;;;;;;;;;;4998389;28;20026;-71
2021/03/12 02:51:16;;;;;;;94.65;38.55;;;;;;;;;;4998450;28;20152;-72
2021/03/12 02:53:43;;;;;;;81.10;39.65;;;;;;;;;;5015647;28;20031;-72
2021/03/12 02:56:09;;;;;;;102.60;48.13;;;;;;;;;;5015495;28;20455;-70
2021/03/12 02:58:38;;;;;;;91.37;46.57;;;;;;;;;;5016295;28;20022;-69
2021/03/12 03:01:07;;;;;;;75.47;40.83;;;;;;;;;;4998458;28;20397;-70
2021/03/12 03:03:34;;;;;;;43.65;25.20;;;;;;;;;;5015529;28;20359;-70
2021/03/12 03:06:02;;;;;;;48.45;29.35;;;;;;;;;;5015905;28;20025;-70
2021/03/12 03:08:28;;;;;;;40.88;24.20;;;;;;;;;;5015843;28;20022;-72
2021/03/12 03:10:57;;;;;;;57.17;32.40;;;;;;;;;;4997921;28;20030;-72
2021/03/12 03:13:26;;;;;;;55.08;31.20;;;;;;;;;;5015338;28;20061;-72
2021/03/12 03:15:53;;;;;;;56.70;29.73;;;;;;;;;;4998176;28;20018;-73
2021/03/12 03:18:19;;;;;;;42.58;23.52;;;;;;;;;;4997761;28;20109;-71
2021/03/12 03:20:45;;;;;;;62.88;32.88;;;;;;;;;;4997770;28;20512;-71
2021/03/12 03:23:12;;;;;;;37.70;23.10;;;;;;;;;;5014726;28;20359;-71
2021/03/12 03:25:38;;;;;;;35.00;22.57;;;;;;;;;;4997816;28;20525;-71
2021/03/12 03:28:05;;;;;;;57.25;31.73;;;;;;;;;;4997859;28;20709;-70
2021/03/12 03:30:31;;;;;;;35.17;20.48;;;;;;;;;;4993776;28;20073;-71
2021/03/12 03:32:57;;;;;;;36.35;20.25;;;;;;;;;;4995456;28;20026;-70
2021/03/12 03:35:23;;;;;;;51.75;27.35;;;;;;;;;;4994631;28;20022;-71
2021/03/12 03:37:49;;;;;;;44.80;22.58;;;;;;;;;;4992990;28;20026;-70
2021/03/12 03:40:16;;;;;;;42.28;24.42;;;;;;;;;;4993356;28;20010;-70
2021/03/12 03:42:45;;;;;;;61.70;32.38;;;;;;;;;;4995255;28;20058;-70
2021/03/12 03:45:12;;;;;;;38.85;19.30;;;;;;;;;;4994412;28;20026;-70
2021/03/12 03:47:39;;;;;;;37.13;20.87;;;;;;;;;;4983586;28;20114;-70
2021/03/12 03:50:06;;;;;;;38.80;23.75;;;;;;;;;;4993319;28;20019;-70
2021/03/12 03:52:32;;;;;;;52.17;27.10;;;;;;;;;;4994468;28;20384;-70
2021/03/12 03:54:59;;;;;;;62.50;27.88;;;;;;;;;;4994439;28;20091;-70
2021/03/12 03:57:25;;;;;;;47.30;25.75;;;;;;;;;;4995160;28;20079;-71
2021/03/12 03:59:52;;;;;;;48.88;26.48;;;;;;;;;;4993099;28;20024;-71
2021/03/12 04:02:19;;;;;;;71.17;35.83;;;;;;;;;;4993764;28;20026;-72
2021/03/12 04:04:47;;;;;;;58.28;30.50;;;;;;;;;;4994732;28;20480;-68
2021/03/12 04:07:13;;;;;;;40.28;22.27;;;;;;;;;;4977291;28;20019;-70
2021/03/12 04:09:40;;;;;;;74.20;36.17;;;;;;;;;;4992882;28;20026;-70
2021/03/12 04:12:07;;;;;;;56.00;28.85;;;;;;;;;;4994388;28;20026;-72
2021/03/12 04:14:33;;;;;;;59.17;30.13;;;;;;;;;;4993185;28;20057;-73
2021/03/12 04:17:00;;;;;;;47.90;25.05;;;;;;;;;;4993505;28;20033;-73
2021/03/12 04:19:26;;;;;;;58.70;29.80;;;;;;;;;;4992093;28;20041;-72
2021/03/12 04:21:52;;;;;;;82.63;34.30;;;;;;;;;;5008859;28;20026;-72
2021/03/12 04:24:19;;;;;;;157.90;59.20;;;;;;;;;;4993551;28;20174;-73
2021/03/12 04:26:46;;;;;;;86.90;38.03;;;;;;;;;;4972847;28;20027;-73
2021/03/12 04:29:13;;;;;;;73.40;33.72;;;;;;;;;;5002302;28;20042;-72
2021/03/12 04:31:39;;;;;;;254.73;80.03;;;;;;;;;;5013246;28;20025;-73
2021/03/12 04:34:05;;;;;;;54.47;26.33;;;;;;;;;;4996678;28;20029;-72
2021/03/12 04:36:32;;;;;;;45.90;21.58;;;;;;;;;;5013021;28;20040;-72
2021/03/12 04:38:58;;;;;;;45.85;21.35;;;;;;;;;;4996700;28;20018;-73
2021/03/12 04:41:24;;;;;;;166.55;58.00;;;;;;;;;;4995119;28;20526;-72
2021/03/12 04:43:51;;;;;;;141.35;48.88;;;;;;;;;;4996128;28;20029;-73
2021/03/12 04:46:17;;;;;;;171.50;54.33;;;;;;;;;;4995518;28;20033;-72
2021/03/12 04:48:43;;;;;;;138.50;48.28;;;;;;;;;;4996078;28;20593;-73
2021/03/12 04:51:10;;;;;;;118.82;38.38;;;;;;;;;;5013199;28;20020;-71
2021/03/12 04:53:39;;;;;;;54.00;24.38;;;;;;;;;;5013606;28;20113;-71
2021/03/12 04:56:05;;;;;;;60.55;26.20;;;;;;;;;;5012294;28;20022;-71
2021/03/12 04:58:31;;;;;;;160.20;49.72;;;;;;;;;;4996379;28;20436;-72
2021/03/12 05:00:58;;;;;;;203.82;61.30;;;;;;;;;;5011986;28;20017;-71
2021/03/12 05:03:24;;;;;;;104.03;40.30;;;;;;;;;;4994455;28;20109;-71
2021/03/12 05:05:52;;;;;;;631.33;318.88;;;;;;;;;;4994755;28;20112;-71
2021/03/12 05:08:18;;;;;;;118.75;59.70;;;;;;;;;;4994626;28;20025;-71
2021/03/12 05:11:01;;;;;;;64.90;33.70;;;;;;;;;;4994593;28;20026;-71
2021/03/12 05:13:27;;;;;;;76.22;41.00;;;;;;;;;;5012548;28;20050;-71
2021/03/12 05:15:53;;;;;;;56.92;29.75;;;;;;;;;;5012842;28;20018;-70
2021/03/12 05:18:19;;;;;;;57.80;31.40;;;;;;;;;;5013945;28;20022;-70
2021/03/12 05:20:47;;;;;;;55.30;33.90;;;;;;;;;;5013825;28;20025;-70
2021/03/12 05:23:13;;;;;;;54.17;32.33;;;;;;;;;;5013799;28;20025;-70
2021/03/12 05:25:39;;;;;;;50.35;30.45;;;;;;;;;;4995760;28;20026;-71
2021/03/12 05:28:05;;;;;;;52.95;31.45;;;;;;;;;;5013323;28;20034;-71
2021/03/12 05:30:31;;;;;;;50.65;31.48;;;;;;;;;;5013625;28;20046;-71
2021/03/12 05:32:58;;;;;;;57.65;35.53;;;;;;;;;;5013660;28;20026;-71
2021/03/12 05:35:24;;;;;;;73.28;42.35;;;;;;;;;;5013433;28;20348;-71
2021/03/12 05:37:50;;;;;;;71.03;43.08;;;;;;;;;;4995817;28;20028;-71
2021/03/12 05:40:16;;;;;;;55.20;36.00;;;;;;;;;;5013764;28;20395;-71
2021/03/12 05:42:43;;;;;;;56.10;31.95;;;;;;;;;;4996000;28;20021;-71
2021/03/12 05:45:10;;;;;;;47.75;30.25;;;;;;;;;;4995680;28;20018;-70
2021/03/12 05:47:37;;;;;;;53.90;30.17;;;;;;;;;;4995821;28;20030;-70
2021/03/12 05:50:06;;;;;;;33.97;23.33;;;;;;;;;;5013280;28;20022;-70
2021/03/12 05:52:33;;;;;;;33.80;21.08;;;;;;;;;;4995882;28;20022;-70
2021/03/12 05:55:00;;;;;;;31.85;20.40;;;;;;;;;;5013010;28;20026;-72
2021/03/12 05:57:28;;;;;;;34.80;21.60;;;;;;;;;;4996087;28;20336;-72
2021/03/12 05:59:54;;;;;;;318.90;170.63;;;;;;;;;;4995888;28;20068;-72
2021/03/12 06:02:21;;;;;;;48.13;30.45;;;;;;;;;;4995628;28;20390;-72
2021/03/12 06:04:47;;;;;;;98.78;61.80;;;;;;;;;;4996417;28;20040;-72
2021/03/12 06:07:13;;;;;;;54.03;35.55;;;;;;;;;;5000034;28;20476;-73
2021/03/12 06:09:41;;;;;;;43.03;25.42;;;;;;;;;;4999207;28;20045;-72
2021/03/12 06:12:08;;;;;;;57.05;35.75;;;;;;;;;;4999049;28;20018;-72
2021/03/12 06:14:47;;;;;;;46.90;30.23;;;;;;;;;;4999193;28;20026;-72
2021/03/12 06:17:30;;;;;;;49.47;26.20;;;;;;;;;;4999209;28;20367;-72
2021/03/12 06:19:56;;;;;;;52.05;31.08;;;;;;;;;;4998655;28;20029;-72
2021/03/12 06:22:23;;;;;;;41.17;23.47;;;;;;;;;;4999208;28;20157;-72
2021/03/12 06:24:49;;;;;;;36.95;21.13;;;;;;;;;;4998935;28;20347;-73
2021/03/12 06:27:23;;;;;;;41.60;24.17;;;;;;;;;;4998571;28;20021;-73
2021/03/12 06:29:49;;;;;;;46.50;27.38;;;;;;;;;;4998979;28;20057;-73
2021/03/12 06:32:15;;;;;;;33.50;21.92;;;;;;;;;;4998487;28;20026;-72
2021/03/12 06:34:59;;;;;;;53.30;33.47;;;;;;;;;;4999019;28;20112;-73
2021/03/12 06:37:29;;;;;;;50.42;27.80;;;;;;;;;;4999531;28;20033;-72
2021/03/12 06:39:55;;;;;;;38.72;22.17;;;;;;;;;;4998452;28;20037;-75
2021/03/12 06:42:21;;;;;;;41.75;23.65;;;;;;;;;;4999803;28;20382;-69
2021/03/12 06:44:47;;;;;;;53.50;32.20;;;;;;;;;;5016437;28;20502;-67
2021/03/12 06:47:19;;;;;;;34.25;19.33;;;;;;;;;;5016629;28;20097;-71
2021/03/12 06:49:56;;;;;;;38.28;20.50;;;;;;;;;;5016332;28;20041;-72
2021/03/12 06:52:35;;;;;;;35.90;23.77;;;;;;;;;;5016683;28;20056;-75
2021/03/12 06:55:01;;;;;;;37.53;21.90;;;;;;;;;;5015709;28;20482;-74
2021/03/12 06:57:28;;;;;;;30.45;19.08;;;;;;;;;;5015939;28;20029;-72
2021/03/12 07:00:00;;;;;;;50.08;28.55;;;;;;;;;;5016345;28;20014;-74
2021/03/12 07:02:36;;;;;;;54.53;29.35;;;;;;;;;;5016002;28;20064;-69
2021/03/12 07:05:03;;;;;;;56.08;30.45;;;;;;;;;;4998090;28;20029;-68
2021/03/12 07:07:34;;;;;;;56.42;33.40;;;;;;;;;;5015622;28;20026;-68
2021/03/12 07:10:00;;;;;;;62.45;33.13;;;;;;;;;;4998343;28;20471;-71
2021/03/12 07:12:46;;;;;;;45.03;25.37;;;;;;;;;;5015808;28;20026;-70
2021/03/12 07:15:13;;;;;;;55.42;29.35;;;;;;;;;;4998125;28;20080;-68
2021/03/12 07:17:39;;;;;;;48.75;26.70;;;;;;;;;;4998115;28;20419;-68
2021/03/12 07:20:07;;;;;;;43.58;24.10;;;;;;;;;;5015125;28;20029;-66
2021/03/12 07:22:33;;;;;;;40.00;23.63;;;;;;;;;;4998021;28;20022;-69
2021/03/12 07:25:03;;;;;;;38.50;24.17;;;;;;;;;;5013520;28;20014;-68
2021/03/12 07:27:33;;;;;;;31.20;21.63;;;;;;;;;;5014935;28;20048;-71
2021/03/12 07:30:01;;;;;;;56.03;30.63;;;;;;;;;;5014591;28;20375;-72
2021/03/12 07:32:30;;;;;;;59.58;30.77;;;;;;;;;;5015098;28;20021;-72
2021/03/12 07:34:59;;;;;;;31.13;19.45;;;;;;;;;;4997613;28;20038;-69
2021/03/12 07:37:26;;;;;;;33.30;19.08;;;;;;;;;;5015615;28;20363;-68
2021/03/12 07:39:53;;;;;;;47.85;25.42;;;;;;;;;;5015184;28;20018;-68
2021/03/12 07:42:20;;;;;;;66.47;28.83;;;;;;;;;;5014926;28;20058;-72
2021/03/12 07:44:47;;;;;;;36.17;22.75;;;;;;;;;;4997391;28;20030;-71
2021/03/12 07:47:14;;;;;;;34.58;20.00;;;;;;;;;;4997510;28;20010;-72
2021/03/12 07:49:40;;;;;;;35.08;19.48;;;;;;;;;;4997259;28;20022;-71
2021/03/12 07:52:06;;;;;;;33.60;18.73;;;;;;;;;;4997420;28;20026;-69
2021/03/12 07:54:35;;;;;;;34.20;19.40;;;;;;;;;;4997432;28;20050;-74
2021/03/12 07:57:02;;;;;;;27.92;19.27;;;;;;;;;;4997082;28;20057;-72
2021/03/12 07:59:40;;;;;;;29.60;18.67;;;;;;;;;;5015206;28;20036;-73
2021/03/12 08:02:06;;;;;;;41.90;22.95;;;;;;;;;;4997235;28;20014;-74
2021/03/12 08:04:33;;;;;;;31.50;19.42;;;;;;;;;;4996979;28;20026;-70
2021/03/12 08:07:00;;;;;;;33.70;21.08;;;;;;;;;;5014939;28;20025;-77
2021/03/12 08:09:30;;;;;;;33.20;20.70;;;;;;;;;;4997571;28;20430;-66
2021/03/12 08:11:56;;;;;;;31.92;18.42;;;;;;;;;;5015567;28;20021;-73
2021/03/12 08:14:23;;;;;;;26.77;15.68;;;;;;;;;;5014615;28;20100;-72
2021/03/12 08:17:00;;;;;;;32.65;19.15;;;;;;;;;;4997146;28;20109;-72
2021/03/12 08:19:30;;;;;;;29.37;17.03;;;;;;;;;;4997518;28;20352;-73
2021/03/12 08:21:57;;;;;;;28.55;19.88;;;;;;;;;;5014776;28;20247;-73
2021/03/12 08:24:42;;;;;;;35.70;27.00;;;;;;;;;;4996788;28;20022;-71
2021/03/12 08:27:08;;;;;;;32.30;20.92;;;;;;;;;;4996165;28;20029;-71
2021/03/12 08:29:38;;;;;;;57.10;32.60;;;;;;;;;;4996804;28;20464;-73
2021/03/12 08:32:23;;;;;;;95.03;50.55;;;;;;;;;;4996626;28;20038;-73
2021/03/12 08:34:49;;;;;;;87.78;47.22;;;;;;;;;;5014419;28;20037;-71
2021/03/12 08:37:30;;;;;;;59.72;35.40;;;;;;;;;;4996963;28;20026;-74
2021/03/12 08:40:16;;;;;;;55.92;32.28;;;;;;;;;;4996120;28;20076;-70
2021/03/12 08:42:56;;;;;;;48.03;31.37;;;;;;;;;;4996855;28;20080;-74
2021/03/12 08:45:38;;;;;;;58.13;37.63;;;;;;;;;;4995941;28;20109;-71
2021/03/12 08:48:07;;;;;;;52.65;32.83;;;;;;;;;;5013988;28;20029;-74
2021/03/12 08:50:35;;;;;;;48.97;29.95;;;;;;;;;;4996875;28;20053;-72
2021/03/12 08:53:01;;;;;;;54.90;33.40;;;;;;;;;;4996063;28;20052;-72
2021/03/12 08:55:27;;;;;;;65.78;35.25;;;;;;;;;;4996395;28;20022;-72
2021/03/12 08:58:14;;;;;;;63.00;35.38;;;;;;;;;;4996187;28;20105;-73
2021/03/12 09:00:40;;;;;;;51.75;31.40;;;;;;;;;;5003293;28;20033;-72
2021/03/12 09:03:16;;;;;;;43.22;27.73;;;;;;;;;;5013977;28;20026;-72
2021/03/12 09:05:43;;;;;;;44.53;25.58;;;;;;;;;;4996345;28;20013;-73
2021/03/12 09:08:09;;;;;;;43.40;26.97;;;;;;;;;;4996017;28;20022;-73
2021/03/12 09:10:36;;;;;;;41.35;25.02;;;;;;;;;;4996276;28;20596;-71
2021/03/12 09:13:02;;;;;;;41.25;25.83;;;;;;;;;;5013591;28;20079;-72
2021/03/12 09:15:28;;;;;;;41.88;26.73;;;;;;;;;;4995999;28;20029;-72
2021/03/12 09:17:58;;;;;;;36.70;25.17;;;;;;;;;;4996231;28;20044;-75
2021/03/12 09:20:25;;;;;;;40.33;24.77;;;;;;;;;;4995956;28;20367;-72
2021/03/12 09:22:52;;;;;;;43.10;26.55;;;;;;;;;;4996184;28;20025;-70
2021/03/12 09:25:26;;;;;;;44.28;26.33;;;;;;;;;;4996138;28;20363;-72
2021/03/12 09:28:04;;;;;;;46.92;28.35;;;;;;;;;;4995994;28;20018;-71
2021/03/12 09:30:35;;;;;;;51.42;26.52;;;;;;;;;;4995630;28;20511;-72
2021/03/12 09:33:01;;;;;;;47.47;28.50;;;;;;;;;;4995747;28;20030;-72
2021/03/12 09:35:28;;;;;;;39.33;24.60;;;;;;;;;;4995769;28;20026;-72
2021/03/12 09:37:55;;;;;;;39.13;25.35;;;;;;;;;;4996104;28;20014;-73
2021/03/12 09:40:41;;;;;;;32.50;20.80;;;;;;;;;;4999458;28;20024;-70
2021/03/12 09:43:08;;;;;;;35.67;21.30;;;;;;;;;;5017073;28;20032;-74
2021/03/12 09:45:36;;;;;;;28.25;19.35;;;;;;;;;;5016786;28;20096;-74
2021/03/12 09:48:03;;;;;;;66.78;39.88;;;;;;;;;;5016711;28;20402;-73
2021/03/12 09:50:29;;;;;;;81.18;49.60;;;;;;;;;;4999629;28;20367;-72
2021/03/12 09:52:58;;;;;;;93.80;58.65;;;;;;;;;;4999886;28;20029;-73
2021/03/12 09:55:25;;;;;;;317.30;208.05;;;;;;;;;;4998633;28;20030;-73
2021/03/12 09:57:51;;;;;;;276.95;174.23;;;;;;;;;;4999504;28;20068;-73
2021/03/12 10:00:26;;;;;;;92.40;60.60;;;;;;;;;;5017318;28;20076;-77
2021/03/12 10:02:57;;;;;;;93.28;65.90;;;;;;;;;;4999091;28;20034;-76
2021/03/12 10:05:24;;;;;;;80.55;54.22;;;;;;;;;;5017287;28;20018;-77
2021/03/12 10:07:50;;;;;;;77.00;43.03;;;;;;;;;;4999466;28;20022;-74
2021/03/12 10:10:18;;;;;;;49.63;31.60;;;;;;;;;;4998709;28;20026;-76
2021/03/12 10:12:44;;;;;;;63.42;35.60;;;;;;;;;;4999305;28;20018;-74
2021/03/12 10:15:15;;;;;;;60.00;33.55;;;;;;;;;;4999052;28;20490;-73
2021/03/12 10:17:42;;;;;;;65.90;37.58;;;;;;;;;;5016882;28;20085;-76
2021/03/12 10:20:29;;;;;;;78.67;43.67;;;;;;;;;;4999111;28;20017;-73
2021/03/12 10:22:56;;;;;;;23.83;16.70;;;;;;;;;;4982862;28;20038;-76
2021/03/12 10:25:22;;;;;;;;;;;;;;;;;;4998484;28;20068;-73
2021/03/12 10:27:52;;;;;;;26.88;19.15;;;;;;;;;;5016683;28;19960;-74
2021/03/12 10:30:20;;;;;;;27.52;18.17;;;;;;;;;;4998191;28;20426;-74
2021/03/12 10:32:47;;;;;;;43.22;27.00;;;;;;;;;;4998667;28;20037;-71
2021/03/12 10:35:18;;;;;;;31.88;21.05;;;;;;;;;;4998094;28;20061;-76
2021/03/12 10:37:44;;;;;;;33.35;21.17;;;;;;;;;;4998229;28;20053;-73
2021/03/12 10:40:10;;;;;;;25.42;17.58;;;;;;;;;;5016535;28;20451;-74
2021/03/12 10:42:37;;;;;;;25.33;16.73;;;;;;;;;;5016047;28;20057;-72
2021/03/12 10:45:07;;;;;;;27.50;17.40;;;;;;;;;;5015895;28;20072;-72
2021/03/12 10:47:34;;;;;;;28.92;16.65;;;;;;;;;;4998614;28;20024;-72
2021/03/12 10:50:20;;;;;;;19.35;14.40;;;;;;;;;;4997112;28;20018;-74
2021/03/12 10:52:47;;;;;;;31.08;24.75;;;;;;;;;;4990366;28;20030;-72
2021/03/12 10:55:13;;;;;;;25.98;17.30;;;;;;;;;;4991675;28;20113;-74
2021/03/12 10:57:39;;;;;;;28.38;18.70;;;;;;;;;;4998464;28;20044;-72
2021/03/12 11:00:07;;;;;;;26.63;18.50;;;;;;;;;;4998088;28;20026;-77
2021/03/12 11:02:37;;;;;;;30.13;16.95;;;;;;;;;;4997993;28;20028;-74
2021/03/12 11:05:04;;;;;;;19.95;14.07;;;;;;;;;;5015576;28;20483;-75
2021/03/12 11:07:32;;;;;;;21.50;14.35;;;;;;;;;;4998434;28;20026;-72
2021/03/12 11:09:58;;;;;;;22.05;14.63;;;;;;;;;;5015131;28;20411;-74
2021/03/12 11:12:25;;;;;;;25.50;16.13;;;;;;;;;;4998131;28;20018;-75
2021/03/12 11:14:51;;;;;;;;;;;;;;;;;;4998175;28;20073;-73
2021/03/12 11:17:17;;;;;;;28.48;15.30;;;;;;;;;;5015292;28;19992;-73
2021/03/12 11:19:44;;;;;;;25.08;18.52;;;;;;;;;;4998028;28;20161;-72
2021/03/12 11:22:11;;;;;;;25.33;15.88;;;;;;;;;;5015181;28;20022;-73
2021/03/12 11:24:37;;;;;;;23.20;14.15;;;;;;;;;;5015266;28;20018;-72
2021/03/12 11:27:04;;;;;;;20.27;13.57;;;;;;;;;;5015503;28;20045;-72
2021/03/12 11:29:32;;;;;;;24.40;16.52;;;;;;;;;;5014884;28;20058;-73
2021/03/12 11:31:59;;;;;;;32.65;19.10;;;;;;;;;;5014712;28;20022;-73
2021/03/12 11:34:25;;;;;;;28.55;16.65;;;;;;;;;;5014462;28;20435;-72
2021/03/12 11:36:52;;;;;;;24.17;16.00;;;;;;;;;;4997697;28;20112;-72
2021/03/12 11:39:18;;;;;;;17.92;12.68;;;;;;;;;;5014982;28;20014;-72
2021/03/12 11:41:44;;;;;;;16.25;13.00;;;;;;;;;;4997663;28;20028;-71
2021/03/12 11:44:10;;;;;;;19.85;13.35;;;;;;;;;;5014270;28;20025;-75
2021/03/12 11:46:36;;;;;;;19.40;13.07;;;;;;;;;;4997573;28;20018;-73
2021/03/12 11:49:02;;;;;;;20.50;10.05;;;;;;;;;;4997717;28;20466;-75
2021/03/12 11:51:29;;;;;;;19.27;13.85;;;;;;;;;;4997179;28;20018;-74
2021/03/12 11:53:55;;;;;;;15.18;10.70;;;;;;;;;;5014180;28;20497;-80
2021/03/12 11:56:21;;;;;;;19.75;12.68;;;;;;;;;;4997237;28;20041;-79
2021/03/12 11:58:47;;;;;;;23.85;13.65;;;;;;;;;;5014719;28;20474;-73
2021/03/12 12:01:13;;;;;;;25.50;15.13;;;;;;;;;;4997243;28;20029;-76
2021/03/12 12:03:39;;;;;;;33.40;17.17;;;;;;;;;;5013164;28;20021;-77
2021/03/12 12:06:06;;;;;;;17.60;12.55;;;;;;;;;;4996890;28;20026;-71
2021/03/12 12:08:32;;;;;;;13.48;10.85;;;;;;;;;;4977617;28;20096;-73
2021/03/12 12:10:59;;;;;;;23.88;15.43;;;;;;;;;;4995601;28;20356;-76
2021/03/12 12:13:25;;;;;;;21.38;12.82;;;;;;;;;;4986337;28;20033;-75
2021/03/12 12:15:52;;;;;;;19.30;13.38;;;;;;;;;;5001298;28;20028;-72
2021/03/12 12:18:18;;;;;;;17.13;13.05;;;;;;;;;;5014537;28;20092;-76
2021/03/12 12:20:45;;;;;;;18.33;12.00;;;;;;;;;;5014258;28;20025;-74
2021/03/12 12:23:12;;;;;;;12.18;8.18;;;;;;;;;;4996564;28;20022;-71
2021/03/12 12:25:38;;;;;;;13.82;9.73;;;;;;;;;;4996335;28;20029;-73
2021/03/12 12:28:06;;;;;;;11.15;7.63;;;;;;;;;;4996059;28;20030;-76
2021/03/12 12:30:32;;;;;;;7.28;6.38;;;;;;;;;;4996112;28;20057;-75
2021/03/12 12:32:59;;;;;;;8.32;7.25;;;;;;;;;;4995910;28;20060;-76
2021/03/12 12:35:26;;;;;;;10.77;7.65;;;;;;;;;;4992651;28;20044;-74
2021/03/12 12:37:52;;;;;;;18.03;10.43;;;;;;;;;;4993293;28;20034;-73
2021/03/12 12:40:20;;;;;;;22.17;13.90;;;;;;;;;;5013680;28;20376;-74
2021/03/12 12:42:47;;;;;;;14.68;10.00;;;;;;;;;;5013954;28;20289;-74
2021/03/12 12:45:13;;;;;;;13.20;9.60;;;;;;;;;;4996271;28;20022;-71
2021/03/12 12:47:39;;;;;;;27.20;15.37;;;;;;;;;;4986895;28;20019;-72
2021/03/12 12:50:06;;;;;;;11.75;8.10;;;;;;;;;;4984243;28;20244;-72
2021/03/12 12:52:33;;;;;;;11.00;8.17;;;;;;;;;;5004038;28;20030;-73
2021/03/12 12:55:00;;;;;;;12.65;8.52;;;;;;;;;;5005347;28;20026;-76
2021/03/12 12:57:26;;;;;;;11.60;8.85;;;;;;;;;;4985197;28;20027;-72
2021/03/12 12:59:53;;;;;;;9.48;6.75;;;;;;;;;;4985687;28;20010;-75
2021/03/12 13:02:19;;;;;;;9.77;7.10;;;;;;;;;;4985682;28;20010;-78
2021/03/12 13:04:45;;;;;;;8.98;6.60;;;;;;;;;;5002404;28;20022;-75
2021/03/12 13:07:11;;;;;;;11.00;8.15;;;;;;;;;;4986873;28;20042;-74
2021/03/12 13:09:38;;;;;;;15.73;11.02;;;;;;;;;;4984055;28;20345;-74
2021/03/12 13:12:04;;;;;;;14.30;8.98;;;;;;;;;;4998814;28;20065;-79
2021/03/12 13:14:30;;;;;;;20.90;13.07;;;;;;;;;;4987890;28;20472;-77
2021/03/12 13:16:58;;;;;;;18.45;13.63;;;;;;;;;;4985792;28;20471;-85
2021/03/12 13:19:26;;;;;;;19.27;13.13;;;;;;;;;;4991503;28;20049;-87
2021/03/12 13:22:01;;;;;;;17.95;11.80;;;;;;;;;;4988483;28;20380;-84
2021/03/12 13:24:27;;;;;;;21.83;12.77;;;;;;;;;;4990914;28;20087;-85
2021/03/12 13:26:57;;;;;;;19.30;12.85;;;;;;;;;;4991667;28;20037;-87
2021/03/12 13:29:24;;;;;;;16.85;10.93;;;;;;;;;;4982771;28;20101;-88
2021/03/12 13:31:50;;;;;;;17.08;10.95;;;;;;;;;;4985382;28;20019;-82
2021/03/12 13:34:16;;;;;;;17.38;12.05;;;;;;;;;;4985119;28;20058;-82
2021/03/12 13:36:42;;;;;;;17.33;13.07;;;;;;;;;;4992563;28;20034;-85
2021/03/12 13:39:08;;;;;;;18.08;12.13;;;;;;;;;;4987094;28;20031;-82
2021/03/12 13:41:35;;;;;;;12.55;9.23;;;;;;;;;;4980623;28;20038;-83
2021/03/12 13:44:01;;;;;;;14.68;10.05;;;;;;;;;;4987052;28;20026;-75
2021/03/12 13:46:27;;;;;;;20.98;14.18;;;;;;;;;;4984134;28;20022;-73
2021/03/12 13:48:53;;;;;;;15.23;10.52;;;;;;;;;;4986871;28;20089;-75
2021/03/12 13:51:20;;;;;;;26.10;14.70;;;;;;;;;;4986539;28;20026;-72
2021/03/12 13:53:46;;;;;;;25.70;15.70;;;;;;;;;;4985942;28;20030;-74
2021/03/12 13:56:12;;;;;;;25.15;14.73;;;;;;;;;;4985875;28;20018;-74
2021/03/12 13:58:38;;;;;;;39.47;21.55;;;;;;;;;;4996723;28;20075;-75
2021/03/12 14:01:04;;;;;;;28.52;19.40;;;;;;;;;;4997350;28;20022;-72
2021/03/12 14:03:30;;;;;;;27.35;18.40;;;;;;;;;;4996180;28;20022;-70
2021/03/12 14:05:56;;;;;;;31.52;18.88;;;;;;;;;;4996982;28;20022;-69
2021/03/12 14:08:23;;;;;;;55.28;28.58;;;;;;;;;;4996932;28;20018;-72
2021/03/12 14:10:49;;;;;;;29.92;16.27;;;;;;;;;;4996986;28;20019;-73
2021/03/12 14:13:15;;;;;;;40.28;22.42;;;;;;;;;;4997217;28;20030;-72
2021/03/12 14:15:41;;;;;;;56.42;28.88;;;;;;;;;;4993855;28;20026;-65
2021/03/12 14:18:07;;;;;;;34.75;18.83;;;;;;;;;;4989312;28;20032;-76
2021/03/12 14:20:34;;;;;;;36.90;21.63;;;;;;;;;;4988393;28;20019;-75
2021/03/12 14:23:00;;;;;;;43.42;21.80;;;;;;;;;;4995537;28;20049;-73